Time;durP1;ratioP1;P1;durP2;ratioP2;P2;SDS_P1;SDS_P2;PMS_P1;PMS_P2;Temp;Humidity;BMP_temperature;BMP_pressure;BME280_temperature;BME280_humidity;BME280_pressure;Samples;Min_cycle;Max_cycle;Signal;HPM_P1;HPM_P2
2022/09/26 00:01:41;;;;;;;29.55;15.27;;;;;;;;;;6125738;23;20226;-91
2022/09/26 00:04:49;;;;;;;29.50;15.20;;;;;;;;;;6125920;23;20168;-92
2022/09/26 00:07:54;;;;;;;28.92;15.52;;;;;;;;;;6108367;23;20521;-91
2022/09/26 00:11:00;;;;;;;29.05;15.25;;;;;;;;;;6123513;23;20179;-90
2022/09/26 00:14:08;;;;;;;27.67;15.07;;;;;;;;;;6122607;23;20193;-90
2022/09/26 00:17:13;;;;;;;28.23;14.25;;;;;;;;;;6122728;23;20174;-91
2022/09/26 00:20:19;;;;;;;28.95;14.52;;;;;;;;;;6121772;23;20225;-91
2022/09/26 00:23:24;;;;;;;28.30;14.85;;;;;;;;;;6122004;23;20157;-91
2022/09/26 00:26:30;;;;;;;30.60;15.13;;;;;;;;;;6122174;23;20260;-91
2022/09/26 00:29:36;;;;;;;30.10;16.17;;;;;;;;;;6120743;23;20629;-91
2022/09/26 00:32:41;;;;;;;27.58;15.23;;;;;;;;;;6120321;23;20173;-92
2022/09/26 00:35:51;;;;;;;30.98;15.35;;;;;;;;;;6120949;23;20620;-92
2022/09/26 00:38:56;;;;;;;32.22;16.33;;;;;;;;;;6119024;23;20185;-92
2022/09/26 00:42:02;;;;;;;32.28;17.27;;;;;;;;;;6117154;23;20178;-92
2022/09/26 00:45:09;;;;;;;30.80;16.50;;;;;;;;;;6118507;23;20164;-91
2022/09/26 00:48:14;;;;;;;36.50;17.60;;;;;;;;;;6118973;23;20205;-92
2022/09/26 00:51:21;;;;;;;31.33;17.00;;;;;;;;;;6118898;23;20169;-92
2022/09/26 00:54:27;;;;;;;32.45;17.13;;;;;;;;;;6117819;23;20718;-91
2022/09/26 00:57:34;;;;;;;33.72;17.70;;;;;;;;;;6118631;23;20203;-91
2022/09/26 01:00:39;;;;;;;37.00;17.17;;;;;;;;;;6119022;23;20205;-92
2022/09/26 01:03:45;;;;;;;31.70;16.38;;;;;;;;;;6117490;23;20173;-91
2022/09/26 01:06:51;;;;;;;36.90;18.10;;;;;;;;;;6117343;23;20196;-93
2022/09/26 01:09:57;;;;;;;32.60;16.67;;;;;;;;;;6117200;23;20301;-92
2022/09/26 01:13:03;;;;;;;30.25;16.30;;;;;;;;;;6115998;23;20177;-91
2022/09/26 01:16:09;;;;;;;31.52;16.80;;;;;;;;;;6117468;23;20174;-92
2022/09/26 01:19:17;;;;;;;35.50;17.60;;;;;;;;;;6116772;23;20280;-92
2022/09/26 01:22:34;;;;;;;36.33;18.45;;;;;;;;;;6116401;23;20166;-91
2022/09/26 01:25:52;;;;;;;34.35;17.45;;;;;;;;;;6117146;23;20169;-91
2022/09/26 01:29:12;;;;;;;37.03;18.23;;;;;;;;;;6114763;23;20489;-89
2022/09/26 01:35:55;;;;;;;35.80;17.77;;;;;;;;;;6115538;23;20216;-90
2022/09/26 01:39:06;;;;;;;35.65;16.88;;;;;;;;;;6116577;23;20630;-90
2022/09/26 01:42:17;;;;;;;33.35;16.13;;;;;;;;;;6116680;23;20201;-90
2022/09/26 01:45:23;;;;;;;30.38;14.95;;;;;;;;;;6116406;23;20245;-90
2022/09/26 01:48:31;;;;;;;31.20;15.50;;;;;;;;;;6115682;23;20310;-90
2022/09/26 01:51:40;;;;;;;29.48;15.32;;;;;;;;;;6115530;23;20208;-91
2022/09/26 01:54:47;;;;;;;27.38;14.55;;;;;;;;;;6115298;23;20293;-91
2022/09/26 01:57:54;;;;;;;33.42;15.93;;;;;;;;;;6115913;23;20165;-91
2022/09/26 02:01:00;;;;;;;29.70;15.27;;;;;;;;;;6116233;23;20243;-92
2022/09/26 02:04:12;;;;;;;32.00;16.05;;;;;;;;;;6116131;23;20181;-92
2022/09/26 02:07:19;;;;;;;30.30;15.48;;;;;;;;;;6115961;23;20193;-92
2022/09/26 02:10:28;;;;;;;33.13;16.25;;;;;;;;;;6115265;23;20336;-92
2022/09/26 02:13:35;;;;;;;29.40;15.88;;;;;;;;;;6116667;23;20243;-92
2022/09/26 02:16:44;;;;;;;35.70;16.70;;;;;;;;;;6117516;23;20184;-90
2022/09/26 02:19:55;;;;;;;33.17;16.60;;;;;;;;;;6117413;23;20468;-91
2022/09/26 02:23:02;;;;;;;31.75;16.17;;;;;;;;;;6117193;23;20181;-90
2022/09/26 02:26:08;;;;;;;31.27;15.75;;;;;;;;;;6115130;23;20240;-91
2022/09/26 02:29:14;;;;;;;29.23;16.52;;;;;;;;;;6116455;23;20205;-91
2022/09/26 02:32:21;;;;;;;35.83;17.90;;;;;;;;;;6116297;23;20245;-91
2022/09/26 02:38:51;;;;;;;32.78;17.10;;;;;;;;;;6117009;23;20170;-91
2022/09/26 02:42:21;;;;;;;33.33;17.80;;;;;;;;;;6134958;23;20157;-90
2022/09/26 02:45:30;;;;;;;40.78;19.83;;;;;;;;;;6117027;23;20164;-90
2022/09/26 02:48:43;;;;;;;36.65;18.75;;;;;;;;;;6116843;23;20196;-90
2022/09/26 02:52:01;;;;;;;34.20;18.40;;;;;;;;;;6117286;23;20225;-91
2022/09/26 02:55:11;;;;;;;36.50;18.60;;;;;;;;;;6116944;23;20169;-90
2022/09/26 02:58:26;;;;;;;33.85;18.35;;;;;;;;;;6118048;23;20169;-91
2022/09/26 03:01:34;;;;;;;32.60;17.40;;;;;;;;;;6117124;23;20169;-90
2022/09/26 03:04:42;;;;;;;29.35;17.05;;;;;;;;;;6117461;23;20192;-91
2022/09/26 03:07:51;;;;;;;32.75;16.88;;;;;;;;;;6116494;23;20724;-89
2022/09/26 03:10:57;;;;;;;28.80;15.98;;;;;;;;;;6116643;23;20157;-89
2022/09/26 03:14:04;;;;;;;30.10;16.05;;;;;;;;;;6116154;23;20193;-89
2022/09/26 03:17:09;;;;;;;29.05;15.70;;;;;;;;;;6118671;23;20233;-91
2022/09/26 03:20:16;;;;;;;30.80;16.27;;;;;;;;;;6117018;23;20176;-92
2022/09/26 03:23:24;;;;;;;26.20;15.38;;;;;;;;;;6116859;23;20198;-90
2022/09/26 03:26:30;;;;;;;27.75;15.48;;;;;;;;;;6115533;23;20156;-91
2022/09/26 03:29:39;;;;;;;31.77;16.02;;;;;;;;;;6117992;23;20179;-91
2022/09/26 03:32:49;;;;;;;26.98;15.02;;;;;;;;;;6118205;23;20507;-91
2022/09/26 03:35:54;;;;;;;32.72;16.70;;;;;;;;;;6118543;23;20241;-90
2022/09/26 03:39:01;;;;;;;29.27;15.95;;;;;;;;;;6119062;23;20185;-91
2022/09/26 03:42:19;;;;;;;30.70;14.93;;;;;;;;;;6119812;23;20173;-91
2022/09/26 03:45:25;;;;;;;27.77;14.82;;;;;;;;;;6119624;23;20268;-91
2022/09/26 03:48:50;;;;;;;29.92;15.52;;;;;;;;;;6119003;23;20263;-90
2022/09/26 03:51:55;;;;;;;25.98;14.88;;;;;;;;;;6119521;23;20172;-90
2022/09/26 03:55:01;;;;;;;25.67;14.25;;;;;;;;;;6119175;23;20195;-91
2022/09/26 03:58:07;;;;;;;29.00;14.95;;;;;;;;;;6119865;23;20173;-91
2022/09/26 04:06:02;;;;;;;29.65;15.18;;;;;;;;;;6136701;23;20189;-92
2022/09/26 04:09:10;;;;;;;30.23;16.35;;;;;;;;;;6119958;23;20200;-93
2022/09/26 04:12:17;;;;;;;31.25;16.10;;;;;;;;;;6121355;23;20193;-93
2022/09/26 04:15:22;;;;;;;25.30;14.90;;;;;;;;;;6119590;23;20193;-91
2022/09/26 04:18:30;;;;;;;26.02;14.10;;;;;;;;;;6119705;23;20177;-92
2022/09/26 04:21:35;;;;;;;25.70;14.05;;;;;;;;;;6118892;23;20165;-91
2022/09/26 04:29:02;;;;;;;23.83;14.18;;;;;;;;;;6136875;23;20185;-92
2022/09/26 04:32:27;;;;;;;30.25;14.30;;;;;;;;;;6120186;23;20169;-92
2022/09/26 04:35:51;;;;;;;20.75;12.15;;;;;;;;;;6138803;23;20169;-92
2022/09/26 04:38:59;;;;;;;26.25;12.30;;;;;;;;;;6120411;23;20694;-92
2022/09/26 04:42:05;;;;;;;23.52;13.30;;;;;;;;;;6119557;23;20165;-92
2022/09/26 04:45:24;;;;;;;22.00;12.60;;;;;;;;;;6119586;23;20192;-92
2022/09/26 04:48:29;;;;;;;24.63;13.52;;;;;;;;;;6120735;23;20200;-90
2022/09/26 04:52:07;;;;;;;22.33;12.50;;;;;;;;;;6119359;23;20197;-91
2022/09/26 04:55:12;;;;;;;24.08;13.30;;;;;;;;;;6119030;23;20169;-91
2022/09/26 04:58:18;;;;;;;23.85;12.40;;;;;;;;;;6121099;23;20261;-93
2022/09/26 05:01:26;;;;;;;24.35;13.23;;;;;;;;;;6118567;23;20176;-93
2022/09/26 05:04:47;;;;;;;23.38;11.90;;;;;;;;;;6121148;23;20638;-92
2022/09/26 05:07:52;;;;;;;21.75;12.93;;;;;;;;;;6119595;23;20527;-91
2022/09/26 05:10:58;;;;;;;19.90;11.85;;;;;;;;;;6120337;23;20166;-90
2022/09/26 05:14:03;;;;;;;21.00;11.63;;;;;;;;;;6118373;23;20261;-92
2022/09/26 05:17:11;;;;;;;26.55;12.18;;;;;;;;;;6121861;23;20177;-90
2022/09/26 05:20:19;;;;;;;24.13;12.07;;;;;;;;;;6123075;23;20237;-92
2022/09/26 05:26:54;;;;;;;19.05;11.10;;;;;;;;;;6121790;23;20166;-92
2022/09/26 05:29:59;;;;;;;21.55;12.02;;;;;;;;;;6121299;23;20169;-92
2022/09/26 05:33:08;;;;;;;19.38;11.98;;;;;;;;;;6121910;23;20244;-92
2022/09/26 05:36:17;;;;;;;20.17;11.38;;;;;;;;;;6120886;23;20173;-92
2022/09/26 05:42:45;;;;;;;20.98;12.23;;;;;;;;;;6118314;23;20172;-92
2022/09/26 05:45:52;;;;;;;18.60;12.05;;;;;;;;;;6118373;23;20173;-91
2022/09/26 05:49:05;;;;;;;19.45;11.93;;;;;;;;;;6120192;23;20193;-92
2022/09/26 05:52:11;;;;;;;21.63;11.85;;;;;;;;;;6118946;23;20170;-92
2022/09/26 05:55:17;;;;;;;22.33;12.45;;;;;;;;;;6120042;23;20213;-91
2022/09/26 05:58:42;;;;;;;24.45;10.95;;;;;;;;;;6137466;23;20186;-91
2022/09/26 06:02:07;;;;;;;24.88;11.40;;;;;;;;;;6136185;23;20311;-91
2022/09/26 06:05:33;;;;;;;18.08;10.77;;;;;;;;;;6118984;23;20201;-91
2022/09/26 06:08:53;;;;;;;19.67;10.57;;;;;;;;;;6117967;23;20309;-93
2022/09/26 06:12:01;;;;;;;19.60;11.13;;;;;;;;;;6138694;23;20168;-93
2022/09/26 06:15:08;;;;;;;26.27;10.93;;;;;;;;;;6119347;23;20271;-93
2022/09/26 06:18:17;;;;;;;20.55;11.13;;;;;;;;;;6095560;23;20174;-91
2022/09/26 06:21:23;;;;;;;18.05;10.48;;;;;;;;;;6120243;23;20157;-92
2022/09/26 06:24:36;;;;;;;20.70;10.02;;;;;;;;;;6119012;23;20282;-92
2022/09/26 06:27:42;;;;;;;22.48;10.02;;;;;;;;;;6121512;23;20200;-91
2022/09/26 06:30:48;;;;;;;21.75;11.02;;;;;;;;;;6121058;23;20173;-91
2022/09/26 06:34:13;;;;;;;20.02;10.70;;;;;;;;;;6112620;23;20188;-92
2022/09/26 06:37:31;;;;;;;19.02;10.68;;;;;;;;;;6123198;23;20173;-92
2022/09/26 06:40:38;;;;;;;19.27;9.50;;;;;;;;;;6121731;23;20177;-93
2022/09/26 06:43:43;;;;;;;19.23;10.38;;;;;;;;;;6122119;23;20234;-92
2022/09/26 06:46:59;;;;;;;17.77;9.63;;;;;;;;;;6138213;23;20217;-93
2022/09/26 06:50:11;;;;;;;22.92;10.45;;;;;;;;;;6120553;23;20177;-92
2022/09/26 06:53:21;;;;;;;20.90;8.90;;;;;;;;;;6120896;23;20177;-91
2022/09/26 06:56:27;;;;;;;15.63;9.00;;;;;;;;;;6123189;23;20173;-92
2022/09/26 06:59:32;;;;;;;18.13;9.57;;;;;;;;;;6121202;23;20177;-93
2022/09/26 07:03:00;;;;;;;19.50;9.60;;;;;;;;;;6117313;23;20460;-92
2022/09/26 07:06:25;;;;;;;18.75;9.02;;;;;;;;;;6118428;23;20681;-93
2022/09/26 07:09:33;;;;;;;16.90;9.32;;;;;;;;;;6122791;23;20197;-91
2022/09/26 07:12:52;;;;;;;15.95;8.68;;;;;;;;;;6121806;23;20213;-90
2022/09/26 07:15:59;;;;;;;15.38;8.85;;;;;;;;;;6121664;23;20276;-92
2022/09/26 07:19:31;;;;;;;13.88;8.60;;;;;;;;;;6121389;23;20189;-91
2022/09/26 07:22:41;;;;;;;14.05;8.45;;;;;;;;;;6122217;23;20169;-92
2022/09/26 07:25:48;;;;;;;16.33;8.90;;;;;;;;;;6120079;23;20222;-91
2022/09/26 07:28:53;;;;;;;16.88;8.05;;;;;;;;;;6121903;23;20269;-92
2022/09/26 07:31:59;;;;;;;14.25;8.40;;;;;;;;;;6124552;23;20162;-91
2022/09/26 07:35:17;;;;;;;19.00;9.43;;;;;;;;;;6122264;23;20263;-93
2022/09/26 07:38:23;;;;;;;16.17;9.02;;;;;;;;;;6123410;23;20173;-92
2022/09/26 07:41:35;;;;;;;15.48;8.95;;;;;;;;;;6122996;23;20172;-91
2022/09/26 07:44:41;;;;;;;18.30;9.40;;;;;;;;;;6122235;23;20184;-91
2022/09/26 07:51:31;;;;;;;17.02;8.93;;;;;;;;;;6140970;23;20170;-90
2022/09/26 07:54:38;;;;;;;18.50;10.07;;;;;;;;;;6124286;23;20169;-92
2022/09/26 07:58:06;;;;;;;16.92;8.32;;;;;;;;;;6139563;23;20176;-92
2022/09/26 08:01:50;;;;;;;15.32;8.27;;;;;;;;;;6134152;23;20296;-91
2022/09/26 08:05:14;;;;;;;15.48;8.00;;;;;;;;;;6120548;23;20173;-90
2022/09/26 08:08:19;;;;;;;19.73;8.23;;;;;;;;;;6120321;23;20196;-92
2022/09/26 08:11:45;;;;;;;16.35;8.02;;;;;;;;;;6109961;23;20261;-93
2022/09/26 08:15:18;;;;;;;13.50;8.00;;;;;;;;;;6119047;23;20189;-92
2022/09/26 08:18:23;;;;;;;18.50;7.60;;;;;;;;;;6120131;23;20227;-92
2022/09/26 08:21:29;;;;;;;11.65;6.90;;;;;;;;;;6120114;23;20165;-93
2022/09/26 08:24:52;;;;;;;14.85;7.60;;;;;;;;;;6120543;23;20173;-90
2022/09/26 08:28:11;;;;;;;13.32;6.82;;;;;;;;;;6122728;23;20240;-92
2022/09/26 08:31:19;;;;;;;13.88;7.50;;;;;;;;;;6119848;23;20189;-92
2022/09/26 08:34:25;;;;;;;16.33;6.70;;;;;;;;;;6119412;23;20169;-92
2022/09/26 08:37:50;;;;;;;10.65;6.50;;;;;;;;;;6138639;23;20277;-93
2022/09/26 08:41:22;;;;;;;10.20;5.88;;;;;;;;;;6136869;23;20193;-92
2022/09/26 08:46:04;;;;;;;8.95;5.82;;;;;;;;;;6120350;23;20185;-94
2022/09/26 08:48:55;;;;;;;11.05;5.80;;;;;;;;;;6136948;23;20185;-91
2022/09/26 08:52:06;;;;;;;6.80;4.78;;;;;;;;;;6116632;23;20471;-91
2022/09/26 08:55:14;;;;;;;9.07;5.20;;;;;;;;;;6122943;23;20185;-92
2022/09/26 08:58:25;;;;;;;7.72;4.70;;;;;;;;;;6122572;23;20164;-92
2022/09/26 09:01:31;;;;;;;10.55;5.72;;;;;;;;;;6120388;23;20173;-92
2022/09/26 09:05:00;;;;;;;8.50;4.78;;;;;;;;;;6136344;23;20173;-91
2022/09/26 09:08:20;;;;;;;9.30;5.72;;;;;;;;;;6124376;23;20172;-93
2022/09/26 09:11:50;;;;;;;9.90;4.95;;;;;;;;;;6119276;23;20192;-92
2022/09/26 09:15:10;;;;;;;7.43;4.72;;;;;;;;;;6120254;23;20229;-92
2022/09/26 09:18:36;;;;;;;7.43;4.82;;;;;;;;;;6119814;23;20236;-91
2022/09/26 09:22:07;;;;;;;7.38;4.35;;;;;;;;;;6137037;23;20217;-91
2022/09/26 09:25:53;;;;;;;11.70;4.65;;;;;;;;;;6118618;23;20499;-91
2022/09/26 09:29:11;;;;;;;8.93;5.22;;;;;;;;;;6117620;23;20256;-90
2022/09/26 09:32:19;;;;;;;11.98;5.10;;;;;;;;;;6117382;23;20222;-93
2022/09/26 09:35:47;;;;;;;10.73;5.13;;;;;;;;;;6118010;23;20173;-90
2022/09/26 09:39:19;;;;;;;12.68;5.57;;;;;;;;;;6137246;23;20180;-90
2022/09/26 09:42:42;;;;;;;8.85;5.20;;;;;;;;;;6117850;23;20578;-92
2022/09/26 09:45:48;;;;;;;8.82;4.95;;;;;;;;;;6118842;23;20189;-92
2022/09/26 09:48:57;;;;;;;8.43;5.07;;;;;;;;;;6119764;23;20192;-92
2022/09/26 09:52:09;;;;;;;11.02;5.43;;;;;;;;;;6119997;23;20213;-89
2022/09/26 09:55:24;;;;;;;8.70;5.07;;;;;;;;;;6120068;23;20200;-92
2022/09/26 09:58:37;;;;;;;12.98;4.75;;;;;;;;;;6117700;23;20177;-90
2022/09/26 10:01:44;;;;;;;9.63;4.80;;;;;;;;;;6116874;23;20168;-92
2022/09/26 10:05:08;;;;;;;7.88;4.43;;;;;;;;;;6138156;23;20168;-92
2022/09/26 10:08:15;;;;;;;6.85;4.32;;;;;;;;;;6117724;23;20612;-92
2022/09/26 10:11:42;;;;;;;10.65;4.90;;;;;;;;;;6137470;23;20173;-92
2022/09/26 10:15:26;;;;;;;9.70;4.70;;;;;;;;;;6019000;23;20256;-91
2022/09/26 10:18:54;;;;;;;9.50;4.47;;;;;;;;;;6027234;23;20238;-92
2022/09/26 10:22:00;;;;;;;8.15;4.70;;;;;;;;;;6119974;23;20249;-93
2022/09/26 10:25:08;;;;;;;10.25;4.65;;;;;;;;;;6121788;23;20201;-92
2022/09/26 10:28:24;;;;;;;9.32;5.20;;;;;;;;;;6119245;23;20289;-94
2022/09/26 10:31:31;;;;;;;9.23;4.30;;;;;;;;;;6121049;23;20221;-92
2022/09/26 10:35:09;;;;;;;9.98;5.60;;;;;;;;;;6140074;23;20169;-92
2022/09/26 10:38:19;;;;;;;13.82;5.75;;;;;;;;;;6123233;23;20195;-89
2022/09/26 10:41:26;;;;;;;8.50;4.78;;;;;;;;;;6124457;23;20181;-92
2022/09/26 10:44:36;;;;;;;8.55;4.32;;;;;;;;;;6122956;23;20165;-91
2022/09/26 10:48:05;;;;;;;7.43;4.80;;;;;;;;;;6137813;23;20169;-92
2022/09/26 10:51:45;;;;;;;7.15;4.63;;;;;;;;;;6134847;23;20200;-92
2022/09/26 10:54:57;;;;;;;6.82;4.32;;;;;;;;;;6119288;23;20213;-91
2022/09/26 10:58:05;;;;;;;8.80;4.13;;;;;;;;;;6119753;23;20173;-92
2022/09/26 11:01:19;;;;;;;13.18;5.57;;;;;;;;;;6120090;23;20166;-91
2022/09/26 11:08:27;;;;;;;4.30;2.22;;;;;;;;;;6140493;23;20232;-92
2022/09/26 11:11:54;;;;;;;7.78;4.25;;;;;;;;;;6120154;23;20177;-92
2022/09/26 11:15:05;;;;;;;3.22;2.72;;;;;;;;;;6119327;23;20185;-92
2022/09/26 11:18:20;;;;;;;4.10;2.70;;;;;;;;;;6118827;23;20162;-92
2022/09/26 11:21:28;;;;;;;5.25;3.35;;;;;;;;;;6119094;23;20274;-92
2022/09/26 11:24:36;;;;;;;5.35;3.58;;;;;;;;;;6118216;23;20629;-93
2022/09/26 11:27:45;;;;;;;9.48;4.88;;;;;;;;;;6117664;23;20193;-92
2022/09/26 11:30:58;;;;;;;6.57;3.72;;;;;;;;;;6121788;23;20644;-91
2022/09/26 11:34:07;;;;;;;7.20;4.00;;;;;;;;;;6121278;23;20174;-91
2022/09/26 11:37:32;;;;;;;5.53;3.40;;;;;;;;;;6119503;23;20180;-92
2022/09/26 11:40:51;;;;;;;6.43;3.60;;;;;;;;;;6119315;23;20185;-91
2022/09/26 11:44:01;;;;;;;5.75;3.08;;;;;;;;;;6118256;23;20177;-92
2022/09/26 11:52:13;;;;;;;8.32;3.60;;;;;;;;;;6135173;23;20165;-90
2022/09/26 11:55:24;;;;;;;14.07;7.85;;;;;;;;;;6118404;23;20544;-91
2022/09/26 11:58:38;;;;;;;8.65;5.03;;;;;;;;;;6119127;23;20165;-92
2022/09/26 12:01:48;;;;;;;4.65;3.25;;;;;;;;;;6118705;23;20172;-91
2022/09/26 12:05:02;;;;;;;5.78;3.50;;;;;;;;;;6119317;23;20178;-92
2022/09/26 12:08:15;;;;;;;11.75;4.68;;;;;;;;;;6139880;23;20173;-92
2022/09/26 12:11:26;;;;;;;6.80;4.30;;;;;;;;;;6118982;23;20173;-93
2022/09/26 12:14:37;;;;;;;6.55;3.25;;;;;;;;;;6119044;23;20204;-91
2022/09/26 12:17:47;;;;;;;4.93;3.25;;;;;;;;;;6115919;23;20270;-91
2022/09/26 12:21:02;;;;;;;5.47;3.00;;;;;;;;;;6116993;23;20185;-92
2022/09/26 12:24:10;;;;;;;5.07;3.08;;;;;;;;;;6120375;23;20186;-91
2022/09/26 12:27:24;;;;;;;3.50;2.50;;;;;;;;;;6120263;23;20370;-92
2022/09/26 12:30:31;;;;;;;6.15;2.90;;;;;;;;;;6116872;23;20659;-91
2022/09/26 12:33:43;;;;;;;4.68;2.50;;;;;;;;;;6117630;23;20177;-92
2022/09/26 12:36:55;;;;;;;4.85;2.65;;;;;;;;;;6117377;23;20248;-91
2022/09/26 12:40:09;;;;;;;3.35;2.42;;;;;;;;;;6116251;23;20169;-92
2022/09/26 12:43:34;;;;;;;3.67;2.30;;;;;;;;;;6117060;23;20264;-92
2022/09/26 12:46:48;;;;;;;4.28;2.22;;;;;;;;;;6117032;23;20153;-91
2022/09/26 12:50:11;;;;;;;4.88;2.45;;;;;;;;;;6118976;23;20254;-91
2022/09/26 12:53:23;;;;;;;3.20;2.33;;;;;;;;;;6118897;23;20621;-92
2022/09/26 12:56:36;;;;;;;6.53;3.08;;;;;;;;;;6116513;23;20178;-92
2022/09/26 13:00:08;;;;;;;3.50;2.10;;;;;;;;;;6118327;23;20173;-91
2022/09/26 13:03:27;;;;;;;10.98;2.92;;;;;;;;;;6118456;23;20285;-92
2022/09/26 13:06:47;;;;;;;4.32;2.20;;;;;;;;;;6116760;23;20173;-93
2022/09/26 13:10:01;;;;;;;4.90;2.20;;;;;;;;;;6115963;23;20196;-92
2022/09/26 13:13:21;;;;;;;6.97;3.20;;;;;;;;;;6117954;23;20231;-91
2022/09/26 13:16:37;;;;;;;6.32;3.30;;;;;;;;;;6116092;23;20173;-91
2022/09/26 13:19:47;;;;;;;6.40;3.80;;;;;;;;;;6119703;23;20313;-92
2022/09/26 13:27:16;;;;;;;6.80;3.28;;;;;;;;;;6137515;23;20153;-92
2022/09/26 13:30:24;;;;;;;5.10;3.35;;;;;;;;;;6118347;23;20191;-91
2022/09/26 13:33:34;;;;;;;19.60;9.27;;;;;;;;;;6116811;23;20215;-90
2022/09/26 13:36:41;;;;;;;17.60;8.35;;;;;;;;;;6119060;23;20196;-93
2022/09/26 13:39:48;;;;;;;8.00;4.20;;;;;;;;;;6118052;23;20203;-92
2022/09/26 13:42:59;;;;;;;5.88;3.15;;;;;;;;;;6119254;23;20226;-91
2022/09/26 13:46:09;;;;;;;6.30;3.03;;;;;;;;;;6116065;23;20169;-90
2022/09/26 13:49:23;;;;;;;5.28;3.13;;;;;;;;;;6119146;23;20160;-92
2022/09/26 13:52:42;;;;;;;4.35;3.03;;;;;;;;;;6119953;23;20253;-92
2022/09/26 13:56:03;;;;;;;9.27;2.67;;;;;;;;;;6118433;23;20518;-92
2022/09/26 13:59:24;;;;;;;8.98;3.65;;;;;;;;;;6115665;23;20177;-91
2022/09/26 14:02:30;;;;;;;7.95;3.38;;;;;;;;;;6116407;23;20312;-92
2022/09/26 14:05:49;;;;;;;5.63;3.33;;;;;;;;;;6120229;23;20188;-92
2022/09/26 14:09:25;;;;;;;9.38;3.65;;;;;;;;;;6119416;23;20173;-90
2022/09/26 14:12:39;;;;;;;5.13;3.13;;;;;;;;;;6115831;23;20181;-92
2022/09/26 14:16:01;;;;;;;6.18;3.67;;;;;;;;;;6116189;23;20535;-91
2022/09/26 14:19:09;;;;;;;5.70;3.75;;;;;;;;;;6116944;23;20177;-92
2022/09/26 14:22:29;;;;;;;7.72;3.92;;;;;;;;;;6118648;23;20170;-92
2022/09/26 14:29:58;;;;;;;9.25;4.22;;;;;;;;;;6135283;23;20188;-92
2022/09/26 14:33:06;;;;;;;21.85;10.82;;;;;;;;;;6118907;23;20177;-92
2022/09/26 14:36:18;;;;;;;8.80;4.07;;;;;;;;;;6120141;23;20217;-92
2022/09/26 14:39:32;;;;;;;8.18;3.70;;;;;;;;;;6119854;23;20190;-92
2022/09/26 14:42:40;;;;;;;6.47;4.15;;;;;;;;;;6119785;23;20185;-92
2022/09/26 14:45:48;;;;;;;7.00;4.05;;;;;;;;;;6119210;23;20184;-93
2022/09/26 14:48:57;;;;;;;5.95;3.55;;;;;;;;;;6119328;23;20231;-92
2022/09/26 14:52:02;;;;;;;7.47;4.07;;;;;;;;;;6120538;23;20263;-92
2022/09/26 14:55:11;;;;;;;6.13;3.58;;;;;;;;;;6119694;23;20181;-91
2022/09/26 14:58:19;;;;;;;10.40;3.38;;;;;;;;;;6121145;23;20181;-92
2022/09/26 15:01:31;;;;;;;8.23;3.63;;;;;;;;;;6116794;23;20185;-93
2022/09/26 15:04:37;;;;;;;4.65;2.65;;;;;;;;;;6121237;23;20166;-93
2022/09/26 15:07:44;;;;;;;4.70;2.95;;;;;;;;;;6121232;23;20178;-92
2022/09/26 15:10:50;;;;;;;4.28;2.80;;;;;;;;;;6122204;23;20285;-92
2022/09/26 15:13:56;;;;;;;5.82;3.42;;;;;;;;;;6117350;23;20760;-92
2022/09/26 15:17:07;;;;;;;4.78;3.38;;;;;;;;;;6120599;23;20172;-93
2022/09/26 15:20:16;;;;;;;6.28;3.42;;;;;;;;;;6117720;23;20173;-93
2022/09/26 15:23:23;;;;;;;4.63;3.22;;;;;;;;;;6118893;23;20214;-93
2022/09/26 15:26:32;;;;;;;4.45;2.97;;;;;;;;;;6117336;23;20173;-93
2022/09/26 15:29:45;;;;;;;4.97;3.00;;;;;;;;;;6121561;23;20173;-92
2022/09/26 15:32:58;;;;;;;7.85;2.88;;;;;;;;;;6119434;23;20189;-93
2022/09/26 15:36:05;;;;;;;4.57;2.67;;;;;;;;;;6119354;23;20157;-92
2022/09/26 15:39:28;;;;;;;3.78;2.58;;;;;;;;;;6120664;23;20197;-93
2022/09/26 15:45:58;;;;;;;3.92;2.25;;;;;;;;;;6122772;23;20305;-91
2022/09/26 15:49:13;;;;;;;2.63;1.50;;;;;;;;;;6122522;23;20165;-91
2022/09/26 15:52:18;;;;;;;2.40;1.40;;;;;;;;;;6124134;23;20720;-91
2022/09/26 15:55:25;;;;;;;3.65;1.73;;;;;;;;;;6120699;23;20300;-91
2022/09/26 15:58:34;;;;;;;2.65;1.70;;;;;;;;;;6121038;23;20165;-92
2022/09/26 16:01:41;;;;;;;2.90;2.00;;;;;;;;;;6118009;23;20268;-91
2022/09/26 16:04:51;;;;;;;4.88;1.90;;;;;;;;;;6121728;23;20189;-91
2022/09/26 16:07:57;;;;;;;4.15;2.20;;;;;;;;;;6118767;23;20578;-92
2022/09/26 16:11:07;;;;;;;5.40;2.47;;;;;;;;;;6119842;23;20217;-91
2022/09/26 16:14:24;;;;;;;4.75;2.70;;;;;;;;;;6119310;23;20240;-92
2022/09/26 16:21:56;;;;;;;5.10;2.70;;;;;;;;;;6140000;23;20177;-91
2022/09/26 16:25:21;;;;;;;5.72;3.20;;;;;;;;;;6120826;23;20177;-91
2022/09/26 16:28:43;;;;;;;5.50;2.53;;;;;;;;;;6123348;23;20165;-92
2022/09/26 16:31:50;;;;;;;5.35;2.50;;;;;;;;;;6122714;23;20620;-92
2022/09/26 16:35:08;;;;;;;5.63;2.95;;;;;;;;;;6119975;23;20172;-92
2022/09/26 16:38:22;;;;;;;4.82;3.10;;;;;;;;;;6119211;23;20161;-91
2022/09/26 16:41:30;;;;;;;23.08;12.48;;;;;;;;;;6120957;23;20217;-93
2022/09/26 16:44:37;;;;;;;7.53;3.85;;;;;;;;;;6119708;23;20169;-93
2022/09/26 16:47:46;;;;;;;6.30;2.92;;;;;;;;;;6119868;23;20160;-94
2022/09/26 16:51:12;;;;;;;11.93;7.65;;;;;;;;;;6116451;23;20288;-92
2022/09/26 16:54:19;;;;;;;8.43;5.55;;;;;;;;;;6118264;23;20316;-91
2022/09/26 16:57:26;;;;;;;8.38;4.72;;;;;;;;;;6120599;23;20169;-92
2022/09/26 17:03:56;;;;;;;7.95;3.97;;;;;;;;;;6120279;23;20169;-92
2022/09/26 17:07:02;;;;;;;8.40;4.10;;;;;;;;;;6121213;23;20225;-90
2022/09/26 17:10:12;;;;;;;11.68;5.75;;;;;;;;;;6120717;23;20281;-91
2022/09/26 17:13:21;;;;;;;8.10;4.78;;;;;;;;;;6123161;23;20184;-91
2022/09/26 17:16:28;;;;;;;7.32;3.95;;;;;;;;;;6120701;23;20185;-93
2022/09/26 17:19:35;;;;;;;7.80;4.32;;;;;;;;;;6119091;23;20174;-91
2022/09/26 17:22:43;;;;;;;8.55;4.10;;;;;;;;;;6124421;23;20153;-91
2022/09/26 17:25:50;;;;;;;13.20;5.53;;;;;;;;;;6123137;23;20215;-92
2022/09/26 17:28:58;;;;;;;13.32;5.93;;;;;;;;;;6122755;23;20194;-92
2022/09/26 17:32:05;;;;;;;9.52;4.65;;;;;;;;;;6123295;23;20200;-93
2022/09/26 17:35:15;;;;;;;14.90;6.25;;;;;;;;;;6122588;23;20170;-91
2022/09/26 17:38:20;;;;;;;11.93;7.32;;;;;;;;;;6122738;23;20197;-91
2022/09/26 17:41:33;;;;;;;9.35;5.68;;;;;;;;;;6121999;23;20173;-89
2022/09/26 17:44:39;;;;;;;8.27;4.72;;;;;;;;;;6124886;23;20169;-93
2022/09/26 17:47:45;;;;;;;9.40;5.28;;;;;;;;;;6121908;23;20173;-92
2022/09/26 17:50:51;;;;;;;12.57;4.93;;;;;;;;;;6125069;23;20205;-93
2022/09/26 17:53:57;;;;;;;10.27;5.72;;;;;;;;;;6125347;23;20156;-92
2022/09/26 17:57:08;;;;;;;10.60;5.38;;;;;;;;;;6142229;23;20180;-92
2022/09/26 18:00:19;;;;;;;12.93;5.88;;;;;;;;;;6123355;23;20169;-92
2022/09/26 18:03:26;;;;;;;12.40;6.45;;;;;;;;;;6124896;23;20169;-90
2022/09/26 18:06:33;;;;;;;15.93;7.90;;;;;;;;;;6120849;23;20244;-90
2022/09/26 18:09:39;;;;;;;17.63;6.97;;;;;;;;;;6120049;23;20161;-88
2022/09/26 18:12:46;;;;;;;9.60;5.75;;;;;;;;;;6119737;23;20200;-89
2022/09/26 18:15:52;;;;;;;19.58;12.60;;;;;;;;;;6110548;23;20261;-92
2022/09/26 18:19:00;;;;;;;11.00;6.03;;;;;;;;;;6107206;23;20237;-91
2022/09/26 18:22:05;;;;;;;21.55;12.02;;;;;;;;;;6107264;23;20169;-91
2022/09/26 18:29:06;;;;;;;13.70;7.10;;;;;;;;;;6108930;23;20170;-91
2022/09/26 18:32:16;;;;;;;16.08;6.90;;;;;;;;;;6108763;23;20246;-92
2022/09/26 18:35:24;;;;;;;11.63;5.90;;;;;;;;;;6106791;23;20185;-90
2022/09/26 18:38:30;;;;;;;14.00;6.03;;;;;;;;;;6107752;23;20234;-91
2022/09/26 18:41:35;;;;;;;13.73;6.38;;;;;;;;;;6107637;23;20158;-91
2022/09/26 18:44:42;;;;;;;12.57;6.32;;;;;;;;;;6109843;23;20548;-91
2022/09/26 18:47:48;;;;;;;15.13;6.45;;;;;;;;;;6110529;23;20191;-91
2022/09/26 18:50:54;;;;;;;15.60;7.75;;;;;;;;;;6107570;23;20196;-91
2022/09/26 18:54:00;;;;;;;15.43;7.72;;;;;;;;;;6109233;23;20161;-91
2022/09/26 19:00:31;;;;;;;27.13;11.15;;;;;;;;;;6108380;23;20166;-91
2022/09/26 19:03:39;;;;;;;23.23;10.32;;;;;;;;;;6110378;23;20178;-91
2022/09/26 19:06:46;;;;;;;22.08;9.48;;;;;;;;;;6110831;23;20205;-90
2022/09/26 19:09:52;;;;;;;22.20;9.32;;;;;;;;;;6111331;23;20161;-91
2022/09/26 19:12:57;;;;;;;20.65;10.40;;;;;;;;;;6110670;23;20201;-91
2022/09/26 19:16:05;;;;;;;20.13;8.10;;;;;;;;;;6111538;23;20185;-91
2022/09/26 19:19:10;;;;;;;16.50;8.00;;;;;;;;;;6110170;23;20306;-91
2022/09/26 19:22:17;;;;;;;17.48;9.50;;;;;;;;;;6110025;23;20186;-91
2022/09/26 19:25:22;;;;;;;14.30;6.95;;;;;;;;;;6108799;23;20166;-90
2022/09/26 19:28:30;;;;;;;16.05;7.95;;;;;;;;;;6108635;23;20182;-91
2022/09/26 19:31:37;;;;;;;15.05;6.93;;;;;;;;;;6108882;23;20194;-91
2022/09/26 19:34:43;;;;;;;10.52;6.47;;;;;;;;;;6111103;23;20257;-93
2022/09/26 19:37:49;;;;;;;12.68;6.55;;;;;;;;;;6112107;23;20532;-92
2022/09/26 19:40:55;;;;;;;12.00;5.90;;;;;;;;;;6111047;23;20173;-91
2022/09/26 19:47:23;;;;;;;17.15;11.02;;;;;;;;;;6111326;23;20170;-91
2022/09/26 19:50:31;;;;;;;16.38;9.18;;;;;;;;;;6111900;23;20199;-92
2022/09/26 19:54:01;;;;;;;13.90;6.55;;;;;;;;;;6113202;23;20174;-92
2022/09/26 19:57:10;;;;;;;23.48;11.05;;;;;;;;;;6111255;23;20203;-93
2022/09/26 20:00:19;;;;;;;14.90;7.15;;;;;;;;;;6113786;23;20256;-91